createdAt,value
2018-09-04T00:03:27.133Z,19.80
2018-09-04T00:08:32.342Z,19.80
2018-09-04T00:13:36.820Z,19.80
2018-09-04T00:18:41.328Z,19.80
2018-09-04T00:23:44.891Z,19.80
2018-09-04T00:28:49.188Z,19.80
2018-09-04T00:33:54.155Z,19.80
2018-09-04T00:39:05.862Z,19.80
2018-09-04T00:44:09.847Z,19.80
2018-09-04T00:49:14.027Z,19.90
2018-09-04T00:54:17.464Z,19.80
2018-09-04T00:59:20.941Z,19.80
2018-09-04T01:04:24.472Z,19.80
2018-09-04T01:09:27.994Z,19.80
2018-09-04T01:14:31.524Z,19.80
2018-09-04T01:19:35.026Z,19.70
2018-09-04T01:24:38.516Z,19.50
2018-09-04T01:29:41.929Z,19.60
2018-09-04T01:34:45.292Z,19.60
2018-09-04T01:39:48.809Z,19.60
2018-09-04T01:44:52.280Z,19.60
2018-09-04T01:49:55.804Z,19.60
2018-09-04T01:54:59.259Z,19.60
2018-09-04T02:00:02.769Z,19.60
2018-09-04T02:05:06.272Z,19.50
2018-09-04T02:10:09.804Z,19.40
2018-09-04T02:15:13.323Z,19.30
2018-09-04T02:20:16.810Z,19.30
2018-09-04T02:25:20.198Z,19.20
2018-09-04T02:30:23.606Z,19.10
2018-09-04T02:35:27.013Z,19.00
2018-09-04T02:40:30.336Z,19.00
2018-09-04T02:45:33.731Z,19.00
2018-09-04T02:56:23.298Z,19.10
2018-09-04T03:01:28.495Z,19.10
2018-09-04T03:06:32.717Z,19.00
2018-09-04T03:11:36.746Z,18.80
2018-09-04T03:16:40.634Z,18.70
2018-09-04T03:21:44.821Z,18.80
2018-09-04T03:26:49.525Z,18.70
2018-09-04T03:31:52.931Z,18.70
2018-09-04T03:36:59.660Z,18.70
2018-09-04T03:42:03.985Z,18.70
2018-09-04T03:47:10.038Z,18.70
2018-09-04T03:52:13.950Z,18.70
2018-09-04T03:57:17.307Z,18.70
2018-09-04T04:02:20.700Z,18.70
2018-09-04T04:07:25.016Z,18.80
2018-09-04T04:12:28.410Z,18.80
2018-09-04T04:17:32.517Z,18.70
2018-09-04T04:22:35.956Z,18.60
2018-09-04T04:27:39.368Z,18.70
2018-09-04T04:32:46.042Z,18.70
2018-09-04T04:37:49.738Z,18.70
2018-09-04T04:42:53.109Z,18.70
2018-09-04T04:47:56.459Z,18.70
2018-09-04T04:52:59.790Z,18.80
2018-09-04T04:58:03.147Z,18.80
2018-09-04T05:03:06.507Z,18.80
2018-09-04T05:08:09.808Z,18.80
2018-09-04T05:13:13.188Z,18.70
2018-09-04T05:18:17.135Z,18.70
2018-09-04T05:23:20.470Z,18.80
2018-09-04T05:28:23.755Z,18.90
2018-09-04T05:33:43.901Z,19.00
2018-09-04T05:38:47.280Z,19.00
2018-09-04T05:43:55.193Z,19.10
2018-09-04T05:48:58.744Z,19.20
2018-09-04T05:54:02.239Z,19.30
2018-09-04T05:59:05.646Z,19.40
2018-09-04T06:04:08.934Z,19.40
2018-09-04T06:09:12.261Z,19.40
2018-09-04T06:14:15.597Z,19.20
2018-09-04T06:19:18.911Z,19.30
2018-09-04T06:24:22.265Z,19.40
2018-09-04T06:29:27.056Z,19.60
2018-09-04T06:34:31.277Z,19.60
2018-09-04T06:39:36.036Z,19.80
2018-09-04T06:44:40.004Z,19.80
2018-09-04T06:49:43.324Z,19.80
2018-09-04T06:54:46.863Z,20.10
2018-09-04T06:59:51.693Z,20.20
2018-09-04T07:04:55.117Z,20.20
2018-09-04T07:09:58.425Z,20.30
2018-09-04T07:15:02.461Z,20.10
2018-09-04T07:20:06.684Z,20.20
2018-09-04T07:25:10.435Z,20.40
2018-09-04T07:30:14.360Z,20.60
2018-09-04T07:35:18.665Z,20.90
2018-09-04T07:40:21.981Z,21.00
2018-09-04T07:45:25.301Z,21.20
2018-09-04T07:50:28.782Z,21.60
2018-09-04T07:55:32.281Z,21.70
2018-09-04T08:00:36.813Z,22.00
2018-09-04T08:05:42.838Z,22.10
2018-09-04T08:10:46.917Z,22.10
2018-09-04T08:15:51.429Z,22.00
2018-09-04T08:20:55.337Z,21.90
2018-09-04T08:25:58.869Z,21.90
2018-09-04T08:31:02.328Z,21.70
2018-09-04T08:36:06.249Z,21.70
2018-09-04T08:41:09.965Z,22.20
2018-09-04T08:46:13.454Z,22.70
2018-09-04T08:51:16.882Z,23.00
2018-09-04T08:56:26.773Z,23.30
2018-09-04T09:01:36.730Z,23.50
2018-09-04T09:06:40.085Z,23.60
2018-09-04T09:11:44.479Z,24.20
2018-09-04T09:16:48.620Z,24.30
2018-09-04T09:30:49.480Z,24.60
2018-09-04T09:35:53.472Z,24.90
2018-09-04T09:41:01.348Z,25.70
2018-09-04T09:46:05.400Z,25.90
2018-09-04T09:51:12.309Z,26.40
2018-09-04T09:56:18.940Z,26.70
2018-09-04T10:01:27.814Z,27.20
2018-09-04T10:06:33.913Z,27.80
2018-09-04T10:11:40.026Z,28.40
2018-09-04T10:16:48.820Z,28.50
2018-09-04T10:21:58.726Z,28.70
2018-09-04T10:27:03.733Z,28.50
2018-09-04T10:32:13.140Z,29.20
2018-09-04T10:37:19.556Z,29.30
2018-09-04T10:42:28.341Z,29.70
2018-09-04T10:47:34.910Z,30.40
2018-09-04T10:52:50.214Z,30.60
2018-09-04T10:58:40.056Z,30.20
2018-09-04T11:03:43.493Z,30.00
2018-09-04T11:08:46.982Z,30.40
2018-09-04T11:13:50.440Z,29.30
2018-09-04T11:18:53.892Z,29.40
2018-09-04T11:23:57.255Z,29.80
2018-09-04T11:29:02.827Z,30.00
2018-09-04T11:34:07.216Z,30.30
2018-09-04T11:39:13.892Z,30.20
2018-09-04T11:50:46.253Z,29.90
2018-09-04T11:55:56.735Z,29.90
2018-09-04T12:06:48.798Z,29.70
2018-09-04T12:12:35.293Z,29.60
2018-09-04T12:17:57.803Z,30.10
2018-09-04T12:46:41.384Z,31.60
2018-09-04T12:51:44.697Z,32.10
2018-09-04T12:56:48.048Z,31.80
2018-09-04T13:01:51.490Z,31.70
2018-09-04T13:06:54.788Z,31.60
2018-09-04T13:11:58.306Z,31.50
2018-09-04T13:17:06.635Z,31.30
2018-09-04T13:22:09.968Z,31.20
2018-09-04T13:27:14.357Z,30.80
2018-09-04T13:32:17.851Z,30.50
2018-09-04T13:37:23.142Z,30.00
2018-09-04T13:42:31.082Z,30.20
2018-09-04T13:47:34.934Z,30.20
2018-09-04T13:52:38.268Z,30.30
2018-09-04T13:57:42.028Z,30.20
2018-09-04T14:02:45.534Z,30.00
2018-09-04T14:07:49.663Z,30.40
2018-09-04T14:12:53.480Z,30.90
2018-09-04T14:17:56.824Z,31.20
2018-09-04T14:23:00.162Z,31.10
2018-09-04T14:28:04.120Z,31.20
2018-09-04T14:33:08.412Z,31.30
2018-09-04T14:38:18.380Z,31.70
2018-09-04T14:43:21.789Z,31.80
2018-09-04T14:48:26.035Z,31.90
2018-09-04T14:53:29.364Z,31.50
2018-09-04T14:58:32.773Z,31.30
2018-09-04T15:03:36.090Z,31.10
2018-09-04T15:08:39.620Z,31.00
2018-09-04T15:13:43.156Z,31.00
2018-09-04T15:18:46.459Z,30.60
2018-09-04T15:23:50.021Z,30.30
2018-09-04T15:28:53.402Z,30.00
2018-09-04T15:33:56.719Z,29.90
2018-09-04T15:39:00.177Z,30.00
2018-09-04T15:44:05.186Z,30.10
2018-09-04T15:50:15.107Z,30.00
2018-09-04T15:55:18.541Z,29.80
2018-09-04T16:00:21.964Z,29.60
2018-09-04T16:05:25.472Z,29.50
2018-09-04T16:10:28.847Z,29.10
2018-09-04T16:15:32.216Z,29.10
2018-09-04T16:20:35.638Z,29.20
2018-09-04T16:25:38.971Z,29.20
2018-09-04T16:30:43.014Z,29.00
2018-09-04T16:35:46.441Z,28.80
2018-09-04T16:40:50.328Z,28.60
2018-09-04T16:46:02.394Z,28.50
2018-09-04T16:51:07.386Z,28.40
2018-09-04T16:56:11.715Z,28.20
2018-09-04T17:01:18.971Z,28.10
2018-09-04T17:06:22.794Z,28.00
2018-09-04T17:11:27.808Z,27.80
2018-09-04T17:16:31.409Z,27.70
2018-09-04T17:21:37.450Z,27.60
2018-09-04T17:26:42.194Z,27.30
2018-09-04T17:31:45.814Z,26.80
2018-09-04T17:36:49.949Z,26.20
2018-09-04T17:41:55.117Z,25.70
2018-09-04T17:47:00.266Z,25.40
2018-09-04T17:52:07.776Z,25.20
2018-09-04T17:57:14.321Z,25.10
2018-09-04T18:02:19.877Z,24.90
2018-09-04T18:07:23.890Z,24.70
2018-09-04T18:12:33.676Z,24.60
2018-09-04T18:17:41.524Z,24.30
2018-09-04T18:22:45.184Z,24.30
2018-09-04T18:27:49.361Z,24.30
2018-09-04T18:32:53.143Z,24.20
2018-09-04T18:37:57.068Z,24.20
2018-09-04T18:43:00.870Z,24.10
2018-09-04T18:48:18.116Z,24.00
2018-09-04T18:53:21.825Z,23.80
2018-09-04T18:58:27.756Z,23.70
2018-09-04T19:03:36.883Z,23.70
2018-09-04T19:08:41.981Z,23.50
2018-09-04T19:13:46.788Z,23.30
2018-09-04T19:19:18.500Z,23.30
2018-09-04T19:24:32.541Z,23.00
2018-09-04T19:29:49.813Z,23.10
2018-09-04T19:35:05.319Z,22.80
2018-09-04T19:40:23.279Z,22.80
2018-09-04T19:45:28.136Z,22.80
2018-09-04T20:13:46.930Z,22.70
2018-09-04T20:18:53.516Z,22.60
2018-09-04T20:23:56.957Z,22.60
2018-09-04T20:29:01.568Z,22.50
2018-09-04T20:34:05.024Z,22.40
2018-09-04T20:39:08.378Z,22.40
2018-09-04T20:44:11.792Z,22.30
2018-09-04T20:49:16.536Z,22.30
2018-09-04T20:54:20.039Z,22.20
2018-09-04T20:59:34.553Z,22.10
2018-09-04T21:04:49.222Z,22.10
2018-09-04T21:09:59.987Z,22.00
2018-09-04T21:15:03.436Z,21.90
2018-09-04T21:20:06.712Z,21.80
2018-09-04T21:25:10.335Z,21.70
2018-09-04T21:30:13.752Z,21.60
2018-09-04T21:35:17.128Z,21.50
2018-09-04T21:40:20.413Z,21.40
2018-09-04T21:45:23.812Z,21.30
2018-09-04T21:50:27.117Z,21.30
2018-09-04T21:55:31.092Z,21.10
2018-09-04T22:00:34.468Z,21.10
2018-09-04T22:05:39.786Z,21.00
2018-09-04T22:10:44.835Z,21.00
2018-09-04T22:15:50.548Z,20.90
2018-09-04T22:20:54.318Z,20.80
2018-09-04T22:26:01.599Z,20.70
2018-09-04T22:31:05.176Z,20.40
2018-09-04T22:36:08.667Z,20.30
2018-09-04T22:41:12.011Z,20.30
2018-09-04T22:46:15.340Z,20.20
2018-09-04T22:51:37.856Z,20.00
2018-09-04T22:56:47.903Z,19.80
2018-09-04T23:01:51.324Z,19.70
2018-09-04T23:06:54.694Z,19.50
2018-09-04T23:11:58.329Z,19.50
2018-09-04T23:17:01.658Z,19.50
2018-09-04T23:22:05.411Z,19.40
2018-09-04T23:27:09.049Z,19.30
2018-09-04T23:32:12.337Z,19.30
2018-09-04T23:37:15.738Z,19.10
2018-09-04T23:42:19.028Z,19.00
2018-09-04T23:47:22.369Z,18.90
2018-09-04T23:52:25.742Z,18.80
2018-09-04T23:57:29.186Z,18.80
